Time;durP1;ratioP1;P1;durP2;ratioP2;P2;SDS_P1;SDS_P2;PMS_P1;PMS_P2;Temp;Humidity;BMP_temperature;BMP_pressure;BME280_temperature;BME280_humidity;BME280_pressure;Samples;Min_cycle;Max_cycle;Signal;HPM_P1;HPM_P2
2021/06/22 00:00:06;;;;;;;;;;;;;;;23.62;43.08;101663.94;5037512;28;19932;-84
2021/06/22 00:02:31;;;;;;;;;;;;;;;23.87;42.66;101669.03;5036508;28;19917;-83
2021/06/22 00:04:56;;;;;;;;;;;;;;;23.82;42.90;101653.84;5036276;28;19921;-84
2021/06/22 00:07:21;;;;;;;;;;;;;;;23.69;43.04;101666.00;5042727;28;19917;-83
2021/06/22 00:09:47;;;;;;;;;;;;;;;23.36;43.43;101668.03;5039355;28;20260;-84
2021/06/22 00:12:12;;;;;;;;;;;;;;;23.25;43.78;101667.22;5036108;28;19963;-84
2021/06/22 00:14:37;;;;;;;;;;;;;;;22.68;44.89;101674.91;5052987;28;19983;-85
2021/06/22 00:17:04;;;;;;;;;;;;;;;22.87;44.71;101686.09;5037408;28;19928;-83
2021/06/22 00:19:29;;;;;;;;;;;;;;;23.07;44.01;101680.72;5052506;28;19918;-83
2021/06/22 00:21:55;;;;;;;;;;;;;;;20.71;50.27;101689.88;5037213;28;19921;-83
2021/06/22 00:24:20;;;;;;;;;;;;;;;21.00;49.60;101683.97;5037023;28;19917;-82
2021/06/22 00:26:45;;;;;;;;;;;;;;;20.98;49.14;101688.72;5037305;28;19925;-84
2021/06/22 00:29:10;;;;;;;;;;;;;;;21.27;48.13;101689.16;5035867;28;19924;-83
2021/06/22 00:31:36;;;;;;;;;;;;;;;21.05;48.01;101690.88;5036031;28;19924;-82
2021/06/22 00:34:01;;;;;;;;;;;;;;;22.19;45.94;101688.19;5052481;28;19921;-83
2021/06/22 00:36:26;;;;;;;;;;;;;;;22.34;44.72;101689.69;5035960;28;19924;-84
2021/06/22 00:38:53;;;;;;;;;;;;;;;22.47;44.57;101687.66;5037436;28;19917;-82
2021/06/22 00:41:20;;;;;;;;;;;;;;;21.99;45.87;101676.09;5040495;28;19980;-82
2021/06/22 00:43:45;;;;;;;;;;;;;;;22.21;45.39;101673.28;5036757;28;19952;-83
2021/06/22 00:46:10;;;;;;;;;;;;;;;21.83;46.33;101669.09;5034829;28;19965;-83
2021/06/22 00:48:35;;;;;;;;;;;;;;;22.16;45.77;101661.75;5035133;28;19917;-82
2021/06/22 00:51:01;;;;;;;;;;;;;;;22.51;44.89;101657.06;5034891;28;19920;-84
2021/06/22 00:53:26;;;;;;;;;;;;;;;22.44;44.79;101657.56;5035041;28;20278;-83
2021/06/22 00:55:52;;;;;;;;;;;;;;;22.69;43.69;101657.34;5034531;28;19942;-83
2021/06/22 00:58:18;;;;;;;;;;;;;;;22.13;45.66;101642.72;5036414;28;19917;-83
2021/06/22 01:00:44;;;;;;;;;;;;;;;22.67;44.55;101643.69;5035354;28;19919;-84
2021/06/22 01:03:09;;;;;;;;;;;;;;;21.87;46.54;101643.03;5036173;28;19913;-84
2021/06/22 01:05:35;;;;;;;;;;;;;;;22.28;45.87;101649.72;5035178;28;19921;-83
2021/06/22 01:08:01;;;;;;;;;;;;;;;22.99;44.40;101643.66;5051651;28;19924;-83
2021/06/22 01:10:27;;;;;;;;;;;;;;;22.99;44.45;101640.00;5036511;28;19917;-84
2021/06/22 01:12:54;;;;;;;;;;;;;;;23.14;43.96;101643.34;5036471;28;19983;-84
2021/06/22 01:15:27;;;;;;;;;;;;;;;23.11;44.07;101649.13;5036073;28;19924;-84
2021/06/22 01:17:56;;;;;;;;;;;;;;;23.41;43.36;101659.31;5036519;28;19921;-84
2021/06/22 01:20:22;;;;;;;;;;;;;;;23.22;43.60;101650.94;5034993;28;19921;-84
2021/06/22 01:22:48;;;;;;;;;;;;;;;23.07;44.41;101659.53;5036412;28;20290;-84
2021/06/22 01:25:14;;;;;;;;;;;;;;;23.42;44.10;101671.28;5035052;28;19923;-84
2021/06/22 01:27:39;;;;;;;;;;;;;;;22.85;45.04;101678.97;5035018;28;19917;-82
2021/06/22 01:30:06;;;;;;;;;;;;;;;22.93;44.78;101671.78;5034990;28;19928;-83
2021/06/22 01:32:31;;;;;;;;;;;;;;;22.86;45.09;101677.94;5034555;28;19917;-85
2021/06/22 01:34:57;;;;;;;;;;;;;;;23.15;44.02;101672.69;5034867;28;20008;-84
2021/06/22 01:37:22;;;;;;;;;;;;;;;23.27;43.88;101677.13;5035076;28;20013;-83
2021/06/22 01:39:47;;;;;;;;;;;;;;;23.38;44.20;101678.06;5036237;28;19918;-83
2021/06/22 01:42:13;;;;;;;;;;;;;;;23.41;43.95;101683.31;5034667;28;19918;-84
2021/06/22 01:44:38;;;;;;;;;;;;;;;23.00;45.11;101686.78;5035918;28;19921;-83
2021/06/22 01:47:07;;;;;;;;;;;;;;;22.70;45.54;101687.56;5034732;28;19925;-82
2021/06/22 01:49:32;;;;;;;;;;;;;;;22.99;45.58;101693.34;5034700;28;19921;-83
2021/06/22 01:51:57;;;;;;;;;;;;;;;23.18;45.08;101689.00;5033929;28;19962;-84
2021/06/22 01:54:24;;;;;;;;;;;;;;;23.31;44.80;101691.53;5051039;28;19966;-83
2021/06/22 01:56:51;;;;;;;;;;;;;;;23.63;43.88;101693.31;5035514;28;19917;-84
2021/06/22 01:59:16;;;;;;;;;;;;;;;23.35;44.29;101684.72;5051121;28;19917;-84
2021/06/22 02:01:43;;;;;;;;;;;;;;;23.35;44.82;101679.19;5040235;28;19923;-83
2021/06/22 02:04:08;;;;;;;;;;;;;;;23.50;44.25;101691.63;5038748;28;19913;-85
2021/06/22 02:06:36;;;;;;;;;;;;;;;23.50;44.15;101682.50;5037030;28;19917;-83
2021/06/22 02:09:02;;;;;;;;;;;;;;;23.31;44.48;101678.63;5037113;28;19917;-83
2021/06/22 02:11:27;;;;;;;;;;;;;;;22.88;45.16;101676.81;5036823;28;19928;-83
2021/06/22 02:13:52;;;;;;;;;;;;;;;23.27;44.61;101682.66;5038160;28;20201;-83
2021/06/22 02:16:18;;;;;;;;;;;;;;;23.49;43.76;101689.00;5036279;28;19921;-82
2021/06/22 02:18:43;;;;;;;;;;;;;;;23.44;43.49;101688.56;5020077;28;19925;-84
2021/06/22 02:21:11;;;;;;;;;;;;;;;23.42;43.59;101676.78;5020227;28;19921;-83
2021/06/22 02:23:38;;;;;;;;;;;;;;;23.52;43.36;101674.94;5036888;28;19928;-85
2021/06/22 02:26:03;;;;;;;;;;;;;;;23.54;43.68;101673.78;5036235;28;19924;-83
2021/06/22 02:28:29;;;;;;;;;;;;;;;23.35;44.44;101671.78;5036505;28;19917;-85
2021/06/22 02:30:55;;;;;;;;;;;;;;;23.00;45.16;101675.75;5037159;28;19917;-84
2021/06/22 02:33:20;;;;;;;;;;;;;;;23.19;44.74;101671.44;5039474;28;19917;-85
2021/06/22 02:35:46;;;;;;;;;;;;;;;23.20;44.78;101667.63;5041201;28;20331;-83
2021/06/22 02:38:11;;;;;;;;;;;;;;;23.37;44.36;101663.41;5040535;28;19917;-84
2021/06/22 02:40:37;;;;;;;;;;;;;;;23.64;43.81;101676.63;5038278;28;19962;-83
2021/06/22 02:43:02;;;;;;;;;;;;;;;23.29;44.71;101675.09;5034130;28;19917;-83
2021/06/22 02:45:28;;;;;;;;;;;;;;;21.77;47.85;101675.97;5035778;28;20508;-84
2021/06/22 02:47:54;;;;;;;;;;;;;;;21.54;49.44;101674.22;5033841;28;19964;-83
2021/06/22 02:50:20;;;;;;;;;;;;;;;21.91;48.24;101676.72;5050640;28;20425;-84
2021/06/22 02:52:45;;;;;;;;;;;;;;;21.55;48.78;101676.84;5034147;28;19953;-83
2021/06/22 02:55:20;;;;;;;;;;;;;;;20.62;52.13;101682.31;5034264;28;20234;-85
2021/06/22 02:57:46;;;;;;;;;;;;;;;20.64;51.68;101677.56;5034386;28;20310;-85
2021/06/22 03:00:12;;;;;;;;;;;;;;;20.59;52.25;101683.41;5035421;28;20297;-84
2021/06/22 03:02:37;;;;;;;;;;;;;;;21.04;51.09;101689.09;5032926;28;19924;-83
2021/06/22 03:05:03;;;;;;;;;;;;;;;20.86;52.53;101685.06;5034158;28;19922;-83
2021/06/22 03:07:28;;;;;;;;;;;;;;;19.99;55.63;101696.19;5034356;28;19917;-83
2021/06/22 03:09:53;;;;;;;;;;;;;;;19.64;56.98;101702.34;5034201;28;20397;-83
2021/06/22 03:12:18;;;;;;;;;;;;;;;19.99;56.53;101701.69;5034749;28;20790;-83
2021/06/22 03:14:43;;;;;;;;;;;;;;;21.02;52.86;101712.25;5035361;28;20018;-85
2021/06/22 03:17:09;;;;;;;;;;;;;;;21.61;51.27;101707.66;5034168;28;19921;-82
2021/06/22 03:19:34;;;;;;;;;;;;;;;21.37;51.42;101709.44;5035402;28;19964;-82
2021/06/22 03:21:59;;;;;;;;;;;;;;;;;;5033629;28;20294;-82
2021/06/22 03:24:25;;;;;;;;;;;;;;;21.57;51.91;101713.41;5035417;28;19917;-84
2021/06/22 03:26:50;;;;;;;;;;;;;;;21.28;52.15;101720.31;5034064;28;19959;-84
2021/06/22 03:29:19;;;;;;;;;;;;;;;21.09;52.22;101718.13;5035145;28;20320;-83
2021/06/22 03:31:44;;;;;;;;;;;;;;;21.72;51.08;101716.78;5050995;28;19925;-83
2021/06/22 03:34:09;;;;;;;;;;;;;;;21.84;50.52;101725.91;5033440;28;19917;-84
2021/06/22 03:36:35;;;;;;;;;;;;;;;20.75;53.97;101727.13;5033781;28;19921;-84
2021/06/22 03:39:00;;;;;;;;;;;;;;;21.91;50.56;101727.19;5034854;28;20259;-84
2021/06/22 03:41:25;;;;;;;;;;;;;;;21.54;51.27;101726.53;5035549;28;20366;-82
2021/06/22 03:43:50;;;;;;;;;;;;;;;20.47;56.00;101734.72;5050452;28;19985;-82
2021/06/22 03:46:18;;;;;;;;;;;;;;;20.96;53.29;101737.50;5035099;28;19925;-83
2021/06/22 03:48:43;;;;;;;;;;;;;;;21.18;52.52;101736.66;5034069;28;20003;-82
2021/06/22 03:51:08;;;;;;;;;;;;;;;22.07;49.99;101732.31;5034483;28;20164;-83
2021/06/22 03:53:37;;;;;;;;;;;;;;;21.64;51.50;101732.19;5037510;28;20447;-83
2021/06/22 03:56:02;;;;;;;;;;;;;;;22.32;49.61;101726.69;5039768;28;20294;-83
2021/06/22 03:58:28;;;;;;;;;;;;;;;22.54;48.80;101731.25;5041917;28;19923;-83
2021/06/22 04:00:53;;;;;;;;;;;;;;;22.90;48.72;101727.22;5038366;28;19917;-83
2021/06/22 04:03:21;;;;;;;;;;;;;;;22.77;48.93;101718.28;5054641;28;20260;-84
2021/06/22 04:05:46;;;;;;;;;;;;;;;23.15;47.85;101708.59;5033794;28;19969;-84
2021/06/22 04:08:11;;;;;;;;;;;;;;;23.09;47.63;101714.59;5034310;28;20286;-84
2021/06/22 04:10:37;;;;;;;;;;;;;;;23.34;47.25;101707.81;5035973;28;19924;-84
2021/06/22 04:13:02;;;;;;;;;;;;;;;23.39;47.53;101708.31;5050564;28;19923;-83
2021/06/22 04:15:27;;;;;;;;;;;;;;;23.46;47.04;101709.50;5038610;28;19924;-82
2021/06/22 04:17:59;;;;;;;;;;;;;;;23.33;47.38;101711.63;5039108;28;19957;-84
2021/06/22 04:20:24;;;;;;;;;;;;;;;22.79;47.09;101716.25;5037444;28;19917;-84
2021/06/22 04:22:49;;;;;;;;;;;;;;;22.83;46.67;101712.22;5054309;28;20393;-82
2021/06/22 04:25:15;;;;;;;;;;;;;;;22.76;46.42;101722.03;5023447;28;20303;-85
2021/06/22 04:27:40;;;;;;;;;;;;;;;22.94;45.65;101720.44;5040457;28;19921;-83
2021/06/22 04:30:05;;;;;;;;;;;;;;;22.95;45.18;101721.34;5040953;28;19992;-84
2021/06/22 04:32:31;;;;;;;;;;;;;;;22.12;45.68;101720.91;5059256;28;19920;-85
2021/06/22 04:34:56;;;;;;;;;;;;;;;22.60;45.22;101722.44;5039185;28;19921;-83
2021/06/22 04:37:21;;;;;;;;;;;;;;;22.16;46.51;101727.91;5040951;28;20008;-85
2021/06/22 04:39:46;;;;;;;;;;;;;;;22.46;45.85;101724.53;5040192;28;19948;-84
2021/06/22 04:42:12;;;;;;;;;;;;;;;22.49;45.78;101723.34;5041704;28;20014;-83
2021/06/22 04:44:37;;;;;;;;;;;;;;;22.69;44.73;101726.31;5037586;28;19917;-85
2021/06/22 04:47:02;;;;;;;;;;;;;;;21.99;46.31;101723.78;5037140;28;19925;-83
2021/06/22 04:49:28;;;;;;;;;;;;;;;22.21;45.64;101730.28;5058504;28;20286;-82
2021/06/22 04:51:53;;;;;;;;;;;;;;;21.90;45.32;101732.81;5040150;28;19913;-82
2021/06/22 04:54:18;;;;;;;;;;;;;;;21.92;44.82;101722.53;5039950;28;20330;-83
2021/06/22 04:56:47;;;;;;;;;;;;;;;22.42;44.02;101730.38;5041373;28;19921;-81
2021/06/22 04:59:20;;;;;;;;;;;;;;;21.61;45.46;101732.44;5042888;28;19985;-84
2021/06/22 05:01:46;;;;;;;;;;;;;;;21.90;45.10;101736.44;5041145;28;19925;-81
2021/06/22 05:04:12;;;;;;;;;;;;;;;21.70;45.33;101740.81;5040087;28;20397;-82
2021/06/22 05:06:38;;;;;;;;;;;;;;;22.06;44.32;101744.34;5040458;28;19928;-81
2021/06/22 05:09:21;;;;;;;;;;;;;;;22.70;42.58;101750.13;5038966;28;19917;-84
2021/06/22 05:11:46;;;;;;;;;;;;;;;22.54;43.71;101753.31;5039075;28;19917;-82
2021/06/22 05:14:12;;;;;;;;;;;;;;;22.45;43.82;101758.59;5038477;28;19967;-83
2021/06/22 05:16:37;;;;;;;;;;;;;;;22.83;42.70;101765.50;5039792;28;20384;-82
2021/06/22 05:19:03;;;;;;;;;;;;;;;22.56;43.14;101771.47;5035841;28;20418;-82
2021/06/22 05:21:28;;;;;;;;;;;;;;;23.30;42.06;101773.50;5037501;28;20016;-81
2021/06/22 05:23:54;;;;;;;;;;;;;;;22.90;42.39;101782.41;5036135;28;20012;-83
2021/06/22 05:26:19;;;;;;;;;;;;;;;22.16;43.65;101779.41;5036081;28;19918;-81
2021/06/22 05:28:44;;;;;;;;;;;;;;;22.85;42.30;101775.56;5035476;28;19932;-82
2021/06/22 05:31:09;;;;;;;;;;;;;;;22.85;42.31;101781.94;5038579;28;19921;-83
2021/06/22 05:33:35;;;;;;;;;;;;;;;22.21;43.52;101786.28;5050445;28;19917;-81
2021/06/22 05:36:00;;;;;;;;;;;;;;;22.27;43.61;101787.69;5054917;28;19918;-83
2021/06/22 05:38:25;;;;;;;;;;;;;;;22.92;42.18;101769.38;5034398;28;19921;-83
2021/06/22 05:40:50;;;;;;;;;;;;;;;22.73;42.10;101777.47;5035200;28;19989;-83
2021/06/22 05:43:16;;;;;;;;;;;;;;;23.08;41.52;101771.66;5035422;28;20428;-83
2021/06/22 05:45:41;;;;;;;;;;;;;;;22.48;42.75;101780.41;5031748;28;20027;-83
2021/06/22 05:48:06;;;;;;;;;;;;;;;22.82;41.33;101771.16;5018545;28;19917;-83
2021/06/22 05:50:31;;;;;;;;;;;;;;;23.11;41.29;101778.84;5017684;28;20092;-82
2021/06/22 05:52:57;;;;;;;;;;;;;;;22.41;41.35;101778.28;5013834;28;19964;-82
2021/06/22 05:55:22;;;;;;;;;;;;;;;22.61;40.89;101782.13;5014386;28;19918;-82
2021/06/22 05:57:53;;;;;;;;;;;;;;;22.45;41.43;101780.66;5013700;28;19979;-83
2021/06/22 06:00:20;;;;;;;;;;;;;;;22.75;40.96;101775.44;5013430;28;19917;-81
2021/06/22 06:02:46;;;;;;;;;;;;;;;21.85;42.03;101781.91;5037480;28;19926;-84
2021/06/22 06:05:12;;;;;;;;;;;;;;;22.21;41.16;101779.88;5023915;28;19971;-85
2021/06/22 06:07:37;;;;;;;;;;;;;;;22.06;40.90;101787.56;5020464;28;19925;-84
2021/06/22 06:10:04;;;;;;;;;;;;;;;23.01;39.57;101773.22;5018205;28;19921;-84
2021/06/22 06:12:29;;;;;;;;;;;;;;;23.08;39.97;101779.09;5023653;28;19951;-84
2021/06/22 06:14:56;;;;;;;;;;;;;;;22.47;39.90;101777.78;5018786;28;19918;-85
2021/06/22 06:17:21;;;;;;;;;;;;;;;23.52;37.96;101782.66;5025320;28;19921;-86
2021/06/22 06:19:47;;;;;;;;;;;;;;;22.49;39.68;101778.50;5031621;28;20015;-85
2021/06/22 06:22:12;;;;;;;;;;;;;;;22.72;39.06;101786.72;5043342;28;19971;-83
2021/06/22 06:24:37;;;;;;;;;;;;;;;22.76;38.97;101782.72;5053303;28;19921;-84
2021/06/22 06:27:06;;;;;;;;;;;;;;;22.92;37.92;101790.59;5035618;28;19965;-84
2021/06/22 06:32:06;;;;;;;;;;;;;;;22.72;38.83;101792.25;5033708;28;19967;-85
2021/06/22 06:34:31;;;;;;;;;;;;;;;23.08;38.38;101791.00;5031895;28;19913;-85
2021/06/22 06:36:56;;;;;;;;;;;;;;;22.97;38.28;101786.41;5031866;28;19924;-83
2021/06/22 06:39:21;;;;;;;;;;;;;;;22.74;38.51;101787.50;5031823;28;19928;-85
2021/06/22 06:41:47;;;;;;;;;;;;;;;22.93;38.01;101793.22;5032327;28;20287;-83
2021/06/22 06:44:12;;;;;;;;;;;;;;;22.77;37.54;101796.38;5033210;28;19917;-85
2021/06/22 06:46:37;;;;;;;;;;;;;;;23.22;37.54;101795.38;5033207;28;20004;-85
2021/06/22 06:49:02;;;;;;;;;;;;;;;23.22;36.77;101795.38;5033801;28;19918;-84
2021/06/22 06:51:28;;;;;;;;;;;;;;;23.40;37.10;101792.91;5032952;28;19917;-85
2021/06/22 06:53:53;;;;;;;;;;;;;;;23.79;36.46;101797.78;5049952;28;19917;-84
2021/06/22 06:56:18;;;;;;;;;;;;;;;23.31;36.67;101797.34;5032978;28;19921;-85
2021/06/22 06:58:44;;;;;;;;;;;;;;;23.87;36.32;101787.00;5032572;28;20007;-85
2021/06/22 07:01:09;;;;;;;;;;;;;;;23.91;36.54;101795.88;5049084;28;19921;-84
2021/06/22 07:03:36;;;;;;;;;;;;;;;23.95;37.66;101800.97;5032407;28;20341;-83
2021/06/22 07:06:01;;;;;;;;;;;;;;;23.66;37.60;101800.78;5033291;28;19928;-84
2021/06/22 07:08:26;;;;;;;;;;;;;;;24.18;35.90;101809.09;5033828;28;19917;-84
2021/06/22 07:10:51;;;;;;;;;;;;;;;24.31;35.49;101814.41;5032434;28;19971;-85
2021/06/22 07:13:17;;;;;;;;;;;;;;;24.83;34.65;101814.28;5033919;28;19962;-85
2021/06/22 07:15:43;;;;;;;;;;;;;;;24.57;35.58;101825.84;5034258;28;19944;-85
2021/06/22 07:18:08;;;;;;;;;;;;;;;24.72;33.99;101824.44;5032436;28;19924;-84
2021/06/22 07:20:33;;;;;;;;;;;;;;;25.33;34.21;101819.72;5032382;28;19925;-84
2021/06/22 07:22:59;;;;;;;;;;;;;;;25.28;33.71;101822.91;5032565;28;19933;-84
2021/06/22 07:25:26;;;;;;;;;;;;;;;25.10;33.44;101822.75;5032098;28;20437;-86
2021/06/22 07:27:52;;;;;;;;;;;;;;;25.19;32.43;101829.31;5034698;28;19925;-82
2021/06/22 07:30:17;;;;;;;;;;;;;;;24.47;33.89;101824.91;5032604;28;20375;-84
2021/06/22 07:32:43;;;;;;;;;;;;;;;24.96;33.85;101828.72;5048736;28;19925;-84
2021/06/22 07:35:09;;;;;;;;;;;;;;;24.99;33.29;101836.75;5047294;28;19971;-82
2021/06/22 07:37:34;;;;;;;;;;;;;;;25.31;33.18;101829.22;5030546;28;19996;-83
2021/06/22 07:39:59;;;;;;;;;;;;;;;24.28;34.17;101832.13;5033933;28;20256;-86
2021/06/22 07:42:24;;;;;;;;;;;;;;;24.48;33.34;101833.06;5030352;28;19917;-84
2021/06/22 07:44:49;;;;;;;;;;;;;;;24.77;33.50;101822.16;5035032;28;19921;-82
2021/06/22 07:47:15;;;;;;;;;;;;;;;25.08;33.13;101840.53;5027167;28;20452;-85
2021/06/22 07:49:40;;;;;;;;;;;;;;;24.33;33.90;101846.41;5025211;28;20371;-84
2021/06/22 07:52:07;;;;;;;;;;;;;;;24.48;34.28;101835.84;5026870;28;20398;-83
2021/06/22 07:54:32;;;;;;;;;;;;;;;24.48;33.40;101835.84;5021402;28;19922;-84
2021/06/22 07:56:57;;;;;;;;;;;;;;;24.87;32.85;101833.22;5039204;28;19929;-83
2021/06/22 07:59:22;;;;;;;;;;;;;;;24.65;35.04;101831.56;5024014;28;19921;-84
2021/06/22 08:01:48;;;;;;;;;;;;;;;25.27;32.76;101828.59;5023098;28;19921;-84
2021/06/22 08:04:13;;;;;;;;;;;;;;;25.41;32.67;101828.19;5022731;28;19921;-86
2021/06/22 08:06:38;;;;;;;;;;;;;;;25.38;31.77;101820.19;5024398;28;19956;-83
2021/06/22 08:09:03;;;;;;;;;;;;;;;25.29;32.37;101821.03;5026058;28;20375;-82
2021/06/22 08:11:29;;;;;;;;;;;;;;;25.46;32.63;101817.53;5040958;28;19980;-85
2021/06/22 08:13:54;;;;;;;;;;;;;;;25.79;31.73;101820.84;5043532;28;20426;-83
2021/06/22 08:16:19;;;;;;;;;;;;;;;24.75;32.33;101818.63;5034715;28;19977;-86
2021/06/22 08:18:44;;;;;;;;;;;;;;;26.08;31.47;101816.28;5048601;28;20011;-85
2021/06/22 08:21:10;;;;;;;;;;;;;;;26.39;30.95;101827.97;5024866;28;20334;-86
2021/06/22 08:23:35;;;;;;;;;;;;;;;26.31;30.41;101825.09;5029634;28;19970;-88
2021/06/22 08:26:01;;;;;;;;;;;;;;;26.27;31.29;101829.19;5024869;28;19961;-85
2021/06/22 08:28:26;;;;;;;;;;;;;;;26.99;30.65;101823.84;5023252;28;19925;-85
2021/06/22 08:30:51;;;;;;;;;;;;;;;26.69;32.29;101829.59;5042367;28;20371;-85
2021/06/22 08:33:17;;;;;;;;;;;;;;;27.16;30.88;101822.09;5026889;28;20241;-84
2021/06/22 08:35:42;;;;;;;;;;;;;;;27.06;30.43;101817.50;5024222;28;19939;-86
2021/06/22 08:38:09;;;;;;;;;;;;;;;26.90;30.65;101817.31;5042032;28;19927;-85
2021/06/22 08:40:44;;;;;;;;;;;;;;;26.55;31.31;101826.44;5026365;28;20294;-85
2021/06/22 08:43:12;;;;;;;;;;;;;;;26.63;31.69;101820.97;5027611;28;19918;-86
2021/06/22 08:45:38;;;;;;;;;;;;;;;26.62;30.60;101822.03;5025840;28;19917;-85
2021/06/22 08:48:09;;;;;;;;;;;;;;;26.77;30.61;101828.81;5023486;28;19924;-84
2021/06/22 08:50:35;;;;;;;;;;;;;;;26.90;30.75;101816.47;5025911;28;20048;-86
2021/06/22 08:53:00;;;;;;;;;;;;;;;26.65;30.44;101827.25;5024358;28;19925;-87
2021/06/22 08:55:26;;;;;;;;;;;;;;;26.73;30.98;101829.28;5026875;28;19925;-88
2021/06/22 08:57:55;;;;;;;;;;;;;;;27.08;30.98;101822.03;5023535;28;19928;-86
2021/06/22 09:00:21;;;;;;;;;;;;;;;27.18;30.34;101823.69;5019891;28;19917;-86
2021/06/22 09:02:57;;;;;;;;;;;;;;;26.66;31.51;101826.22;5029781;28;19924;-88
2021/06/22 09:05:23;;;;;;;;;;;;;;;27.39;30.20;101823.41;5035380;28;20003;-87
2021/06/22 09:07:56;;;;;;;;;;;;;;;26.50;31.50;101830.53;5035555;28;20290;-84
2021/06/22 09:10:23;;;;;;;;;;;;;;;26.29;31.78;101827.16;5036770;28;19917;-83
2021/06/22 09:12:48;;;;;;;;;;;;;;;26.58;31.72;101828.91;5036633;28;19917;-87
2021/06/22 09:15:18;;;;;;;;;;;;;;;26.95;30.86;101826.06;5052870;28;19921;-85
2021/06/22 09:17:45;;;;;;;;;;;;;;;26.57;30.91;101835.47;5036252;28;20374;-85
2021/06/22 09:20:11;;;;;;;;;;;;;;;26.39;30.92;101829.84;5035928;28;19917;-86
2021/06/22 09:22:36;;;;;;;;;;;;;;;26.13;29.24;101825.91;5037564;28;20032;-87
2021/06/22 09:25:08;;;;;;;;;;;;;;;25.78;29.85;101827.41;5037524;28;20362;-87
2021/06/22 09:27:50;;;;;;;;;;;;;;;25.68;31.60;101826.56;5042136;28;19931;-87
2021/06/22 09:30:16;;;;;;;;;;;;;;;25.38;31.98;101819.28;5020713;28;19922;-85
2021/06/22 09:32:42;;;;;;;;;;;;;;;25.91;31.63;101820.69;5056007;28;20293;-89
2021/06/22 09:35:20;;;;;;;;;;;;;;;24.68;32.33;101817.44;5040833;28;20004;-85
2021/06/22 09:37:55;;;;;;;;;;;;;;;26.19;30.87;101818.84;5042194;28;19917;-84
2021/06/22 09:40:27;;;;;;;;;;;;;;;27.18;29.10;101818.13;5037600;28;20006;-88
2021/06/22 09:42:54;;;;;;;;;;;;;;;26.28;31.28;101817.94;5036652;28;20363;-86
2021/06/22 09:45:20;;;;;;;;;;;;;;;26.03;30.47;101819.50;5036306;28;20386;-87
2021/06/22 09:47:53;;;;;;;;;;;;;;;25.64;30.22;101819.56;5034776;28;19917;-87
2021/06/22 09:50:33;;;;;;;;;;;;;;;26.83;29.25;101817.09;5036717;28;19924;-87
2021/06/22 09:53:31;;;;;;;;;;;;;;;26.90;29.34;101822.00;5036582;28;19940;-89
2021/06/22 09:55:58;;;;;;;;;;;;;;;28.17;28.12;101812.50;5012740;28;20365;-87
2021/06/22 09:58:38;;;;;;;;;;;;;;;25.64;31.80;101828.75;5037188;28;19921;-88
2021/06/22 10:01:03;;;;;;;;;;;;;;;25.62;31.31;101833.56;5035400;28;19917;-87
2021/06/22 10:03:36;;;;;;;;;;;;;;;26.83;29.96;101824.56;5052022;28;20011;-88
2021/06/22 10:06:06;;;;;;;;;;;;;;;25.95;32.01;101828.56;5035227;28;19928;-88
2021/06/22 10:08:48;;;;;;;;;;;;;;;24.95;33.63;101836.13;5038301;28;20386;-86
2021/06/22 10:11:33;;;;;;;;;;;;;;;25.62;31.05;101843.75;5048366;28;19925;-88
2021/06/22 10:13:58;;;;;;;;;;;;;;;26.00;30.21;101834.53;5037004;28;19917;-88
2021/06/22 10:16:25;;;;;;;;;;;;;;;25.05;31.58;101847.22;5035179;28;19928;-85
2021/06/22 10:18:51;;;;;;;;;;;;;;;26.59;30.26;101841.75;5034242;28;19917;-84
2021/06/22 10:21:16;;;;;;;;;;;;;;;27.34;29.42;101831.34;5033598;28;20019;-85
2021/06/22 10:23:42;;;;;;;;;;;;;;;25.67;31.50;101841.44;5032456;28;20367;-84
2021/06/22 10:26:07;;;;;;;;;;;;;;;24.89;31.93;101842.25;5033095;28;19944;-83
2021/06/22 10:28:33;;;;;;;;;;;;;;;26.24;31.13;101826.72;5033102;28;19921;-83
2021/06/22 10:30:59;;;;;;;;;;;;;;;26.79;29.88;101826.75;5033379;28;19920;-85
2021/06/22 10:33:24;;;;;;;;;;;;;;;26.13;30.81;101841.66;5033558;28;20301;-84
2021/06/22 10:35:49;;;;;;;;;;;;;;;25.13;31.55;101847.38;5050017;28;20367;-82
2021/06/22 10:38:16;;;;;;;;;;;;;;;25.58;32.04;101839.56;5050022;28;19992;-85
2021/06/22 10:40:41;;;;;;;;;;;;;;;26.14;31.03;101844.25;5033549;28;19920;-83
2021/06/22 10:43:07;;;;;;;;;;;;;;;26.56;29.34;101842.03;5032745;28;19917;-83
2021/06/22 10:45:32;;;;;;;;;;;;;;;27.09;29.15;101838.53;5034007;28;19960;-85
2021/06/22 10:48:01;;;;;;;;;;;;;;;27.74;28.73;101837.41;5033252;28;19917;-86
2021/06/22 10:50:26;;;;;;;;;;;;;;;28.15;27.79;101834.94;5032378;28;19927;-83
2021/06/22 10:53:03;;;;;;;;;;;;;;;26.34;30.83;101838.66;5033624;28;19917;-82
2021/06/22 10:55:30;;;;;;;;;;;;;;;27.47;28.77;101836.50;5034238;28;20365;-84
2021/06/22 10:57:58;;;;;;;;;;;;;;;28.53;28.19;101835.47;5032053;28;19921;-84
2021/06/22 11:00:24;;;;;;;;;;;;;;;27.41;29.65;101839.91;5033624;28;19921;-81
2021/06/22 11:03:00;;;;;;;;;;;;;;;28.22;28.42;101835.16;5032041;28;20366;-84
2021/06/22 11:05:26;;;;;;;;;;;;;;;27.30;29.84;101835.44;5032140;28;19925;-84
2021/06/22 11:08:10;;;;;;;;;;;;;;;27.42;29.25;101825.00;5032028;28;19917;-84
2021/06/22 11:10:36;;;;;;;;;;;;;;;27.43;29.97;101832.28;5031867;28;19917;-84
2021/06/22 11:13:01;;;;;;;;;;;;;;;27.83;28.78;101836.44;5036325;28;19921;-84
2021/06/22 11:15:53;;;;;;;;;;;;;;;28.10;28.52;101838.22;5033291;28;19967;-83
2021/06/22 11:18:19;;;;;;;;;;;;;;;28.05;29.10;101842.50;5030643;28;19964;-82
2021/06/22 11:20:53;;;;;;;;;;;;;;;28.46;28.08;101832.50;5034291;28;19925;-84
2021/06/22 11:23:22;;;;;;;;;;;;;;;27.75;28.93;101828.91;5031692;28;20292;-83
2021/06/22 11:25:50;;;;;;;;;;;;;;;28.15;29.09;101822.94;5033882;28;19964;-82
2021/06/22 11:28:17;;;;;;;;;;;;;;;28.57;28.11;101820.19;5039704;28;19996;-82
2021/06/22 11:30:57;;;;;;;;;;;;;;;28.36;29.05;101820.59;5036575;28;19917;-84
2021/06/22 11:33:28;;;;;;;;;;;;;;;28.40;29.55;101819.25;5033031;28;19921;-83
2021/06/22 11:36:12;;;;;;;;;;;;;;;26.31;31.37;101827.84;5028263;28;19996;-84
2021/06/22 11:38:37;;;;;;;;;;;;;;;26.60;32.39;101824.06;5012498;28;19921;-83
2021/06/22 11:41:09;;;;;;;;;;;;;;;27.88;30.78;101819.25;5029884;28;19935;-83
2021/06/22 11:43:35;;;;;;;;;;;;;;;27.70;31.03;101814.59;5012611;28;19925;-85
2021/06/22 11:46:19;;;;;;;;;;;;;;;27.56;31.05;101810.50;5028894;28;19917;-83
2021/06/22 11:48:57;;;;;;;;;;;;;;;28.38;30.72;101818.53;5014523;28;20004;-84
2021/06/22 11:51:48;;;;;;;;;;;;;;;28.64;29.83;101817.66;5012078;28;19917;-84
2021/06/22 11:54:14;;;;;;;;;;;;;;;26.20;33.32;101819.75;4982227;28;19917;-83
2021/06/22 11:56:40;;;;;;;;;;;;;;;27.45;32.22;101821.00;5012762;28;19929;-82
2021/06/22 11:59:05;;;;;;;;;;;;;;;27.63;31.35;101821.88;5019172;28;19917;-83
2021/06/22 12:01:30;;;;;;;;;;;;;;;27.99;30.62;101824.59;5027814;28;19941;-83
2021/06/22 12:03:55;;;;;;;;;;;;;;;27.65;31.69;101832.84;5035234;28;19928;-82
2021/06/22 12:06:22;;;;;;;;;;;;;;;26.47;33.27;101832.75;5011895;28;19921;-81
2021/06/22 12:08:47;;;;;;;;;;;;;;;25.82;33.83;101834.41;5013221;28;19919;-82
2021/06/22 12:11:26;;;;;;;;;;;;;;;24.77;35.97;101846.16;5028787;28;20314;-82
2021/06/22 12:13:52;;;;;;;;;;;;;;;25.01;34.85;101842.13;5011786;28;19917;-82
2021/06/22 12:16:24;;;;;;;;;;;;;;;27.16;31.80;101834.09;5013741;28;20318;-83
2021/06/22 12:18:54;;;;;;;;;;;;;;;26.37;33.47;101838.34;5011550;28;19918;-83
2021/06/22 12:21:20;;;;;;;;;;;;;;;27.18;32.23;101828.38;5013097;28;20294;-83
2021/06/22 12:23:45;;;;;;;;;;;;;;;26.48;32.71;101829.84;5012599;28;19917;-83
2021/06/22 12:26:12;;;;;;;;;;;;;;;25.46;33.53;101831.38;5011511;28;20001;-82
2021/06/22 12:28:38;;;;;;;;;;;;;;;25.81;33.60;101832.63;5014596;28;19922;-83
2021/06/22 12:31:04;;;;;;;;;;;;;;;27.18;32.20;101828.38;5012203;28;19924;-82
2021/06/22 12:33:35;;;;;;;;;;;;;;;27.33;30.89;101823.19;5011593;28;19924;-83
2021/06/22 12:36:01;;;;;;;;;;;;;;;26.16;32.93;101820.03;5016057;28;19918;-82
2021/06/22 12:38:28;;;;;;;;;;;;;;;26.69;31.88;101817.59;5016713;28;19924;-81